Spring Park, MN (55384)

8:53 AM CST on December 11, 2016 (GMT -0600)
Seton Channel, Lake Minnetonka | | Change Station
Active Advisory: Winter Weather Advisory

Elev 919 ft 44.94 °N, 93.64 °W | Updated 2 seconds ago

Snow
Snow
17.4 °F
Feels Like 6 °F
N
8.9
Wind Variable Wind from ENE
Gusts 11.0 mph

Today
High -- | Low -- °F
--% Chance of Precip.
Yesterday
High -- | Low -- °F
Precip. -- in
Pressure 29.91 in
Visibility 1.0 miles
Clouds Overcast 2400 ft
Windchill 6 °F
Dew Point 15 °F
Humidity 90%
Rainfall 0.00 in
Snow Depth Not available.
7:42 AM 4:33 PM
Waxing Gibbous, 92% visible
SPECI KFCM 111440Z 05007KT 1SM -SN OVC024 M08/M11 A2991 RMK AO2 P0001 T10781106
Pressure 29.91 in
Visibility 1.0 miles
Clouds Overcast 2400 ft
Windchill 6 °F
Dew Point 15 °F
Humidity 90%
Rainfall 0.00 in
Snow Depth Not available.
7:42 AM 4:33 PM
Waxing Gibbous, 92% visible
SPECI KFCM 111440Z 05007KT 1SM -SN OVC024 M08/M11 A2991 RMK AO2 P0001 T10781106

10-Day Weather Forecast

Almanac

Astronomy

Dec. 11, 2016 Rise Set
Actual Time
Civil Twilight
Nautical Twilight
Astronomical Twilight
Moon
Length of Visible Light
Length of Day
Tomorrow will be .
, % of the Moon is Illuminated

Today's Extremes

State Highs State Lows

Community

WunderPhotos

Upload Photos

1,956,719 photos uploaded!

WunderBlog® & News

Nearby

Air Quality

  Air Quality AQ Index Pollutant
Not available.

Snow Depth

Station Depth Elevation

Earthquake Activity

City Distance Mag. Time & Date
Minimum magnitude displayed is 2.5.

Coastal Water Temperatures

Place Temperature

Stations

Nearby Weather Stations

Station Location Temp. Windchill Dew Point Humidity Wind Precip. Elev Updated Type
                   

Watches & Warnings

Winter Weather Advisory
Issued: 3:56 AM CST Dec. 11, 2016 – National Weather Service

... Winter Weather Advisory now in effect until noon CST today...

The Winter Weather Advisory is now in effect until noon CST
today.

* Expect snow to continue... diminishing around noon.

* The heaviest snowfall rates will occur until 8 am this
morning.

* Storm total snow accumulations of 4 to 7 inches are expected.

* Look for reduced visibilities at times.

* Plan on slippery Road conditions.

Precautionary/preparedness actions...

A Winter Weather Advisory for snow means periods of snow will
cause primarily travel difficulties. Be prepared for snow covered
roads and limited visibilities... and use caution while driving.
The latest Road conditions for the state you are calling from can
be obtained by calling 5 1 1.